sensor_id;sensor_type;location;lat;lon;timestamp;P1;durP1;ratioP1;P2;durP2;ratioP2
9370;SDS011;4725;48.384;8.984;2023-05-15T00:01:32;10.70;;;6.43;;
9370;SDS011;4725;48.384;8.984;2023-05-15T00:03:59;18.00;;;7.13;;
9370;SDS011;4725;48.384;8.984;2023-05-15T00:06:26;8.47;;;6.00;;
9370;SDS011;4725;48.384;8.984;2023-05-15T00:08:54;9.87;;;5.37;;
9370;SDS011;4725;48.384;8.984;2023-05-15T00:11:21;9.73;;;5.63;;
9370;SDS011;4725;48.384;8.984;2023-05-15T00:13:48;8.63;;;5.67;;
9370;SDS011;4725;48.384;8.984;2023-05-15T00:16:15;9.93;;;5.87;;
9370;SDS011;4725;48.384;8.984;2023-05-15T00:18:42;12.33;;;5.77;;
9370;SDS011;4725;48.384;8.984;2023-05-15T00:21:09;11.90;;;7.20;;
9370;SDS011;4725;48.384;8.984;2023-05-15T00:23:35;12.60;;;6.80;;
9370;SDS011;4725;48.384;8.984;2023-05-15T00:26:04;10.67;;;6.23;;
9370;SDS011;4725;48.384;8.984;2023-05-15T00:28:31;17.50;;;6.93;;
9370;SDS011;4725;48.384;8.984;2023-05-15T00:30:57;12.63;;;6.87;;
9370;SDS011;4725;48.384;8.984;2023-05-15T00:33:24;11.40;;;6.10;;
9370;SDS011;4725;48.384;8.984;2023-05-15T00:35:51;9.43;;;6.30;;
9370;SDS011;4725;48.384;8.984;2023-05-15T00:38:18;12.07;;;6.37;;
9370;SDS011;4725;48.384;8.984;2023-05-15T00:40:45;10.40;;;6.80;;
9370;SDS011;4725;48.384;8.984;2023-05-15T00:43:13;10.43;;;6.13;;
9370;SDS011;4725;48.384;8.984;2023-05-15T00:45:41;10.60;;;5.97;;
9370;SDS011;4725;48.384;8.984;2023-05-15T00:48:08;12.23;;;5.57;;
9370;SDS011;4725;48.384;8.984;2023-05-15T00:50:35;7.70;;;5.33;;
9370;SDS011;4725;48.384;8.984;2023-05-15T00:53:03;9.17;;;5.63;;
9370;SDS011;4725;48.384;8.984;2023-05-15T00:55:31;12.97;;;7.40;;
9370;SDS011;4725;48.384;8.984;2023-05-15T00:57:59;8.80;;;6.20;;
9370;SDS011;4725;48.384;8.984;2023-05-15T01:00:28;12.70;;;6.60;;
9370;SDS011;4725;48.384;8.984;2023-05-15T01:02:57;11.60;;;6.23;;
9370;SDS011;4725;48.384;8.984;2023-05-15T01:05:24;13.03;;;7.20;;
9370;SDS011;4725;48.384;8.984;2023-05-15T01:07:53;12.10;;;6.07;;
9370;SDS011;4725;48.384;8.984;2023-05-15T01:10:22;13.83;;;6.20;;
9370;SDS011;4725;48.384;8.984;2023-05-15T01:12:49;9.67;;;5.37;;
9370;SDS011;4725;48.384;8.984;2023-05-15T01:15:19;9.27;;;5.90;;
9370;SDS011;4725;48.384;8.984;2023-05-15T01:17:47;11.00;;;5.47;;
9370;SDS011;4725;48.384;8.984;2023-05-15T01:20:15;10.67;;;6.03;;
9370;SDS011;4725;48.384;8.984;2023-05-15T01:22:50;8.70;;;5.30;;
9370;SDS011;4725;48.384;8.984;2023-05-15T01:25:40;8.10;;;4.93;;
9370;SDS011;4725;48.384;8.984;2023-05-15T01:28:20;8.27;;;5.37;;
9370;SDS011;4725;48.384;8.984;2023-05-15T01:30:50;8.97;;;5.10;;
9370;SDS011;4725;48.384;8.984;2023-05-15T01:33:20;12.07;;;5.63;;
9370;SDS011;4725;48.384;8.984;2023-05-15T01:35:51;8.50;;;5.33;;
9370;SDS011;4725;48.384;8.984;2023-05-15T01:38:23;10.50;;;5.30;;
9370;SDS011;4725;48.384;8.984;2023-05-15T01:40:56;8.50;;;5.50;;
9370;SDS011;4725;48.384;8.984;2023-05-15T01:43:28;8.77;;;5.33;;
9370;SDS011;4725;48.384;8.984;2023-05-15T01:45:58;11.50;;;7.03;;
9370;SDS011;4725;48.384;8.984;2023-05-15T01:48:25;10.33;;;6.03;;
9370;SDS011;4725;48.384;8.984;2023-05-15T01:50:53;9.60;;;5.63;;
9370;SDS011;4725;48.384;8.984;2023-05-15T01:53:22;8.70;;;5.90;;
9370;SDS011;4725;48.384;8.984;2023-05-15T01:55:50;8.83;;;5.87;;
9370;SDS011;4725;48.384;8.984;2023-05-15T01:58:18;9.87;;;5.83;;
9370;SDS011;4725;48.384;8.984;2023-05-15T02:00:47;8.57;;;5.80;;
9370;SDS011;4725;48.384;8.984;2023-05-15T02:03:14;14.77;;;6.03;;
9370;SDS011;4725;48.384;8.984;2023-05-15T02:05:42;9.03;;;5.40;;
9370;SDS011;4725;48.384;8.984;2023-05-15T02:08:09;10.40;;;6.20;;
9370;SDS011;4725;48.384;8.984;2023-05-15T02:10:37;11.23;;;5.53;;
9370;SDS011;4725;48.384;8.984;2023-05-15T02:13:05;10.97;;;6.00;;
9370;SDS011;4725;48.384;8.984;2023-05-15T02:15:33;10.83;;;6.27;;
9370;SDS011;4725;48.384;8.984;2023-05-15T02:18:03;9.93;;;6.00;;
9370;SDS011;4725;48.384;8.984;2023-05-15T02:20:30;11.77;;;5.80;;
9370;SDS011;4725;48.384;8.984;2023-05-15T02:22:57;8.30;;;5.83;;
9370;SDS011;4725;48.384;8.984;2023-05-15T02:25:25;13.20;;;5.90;;
9370;SDS011;4725;48.384;8.984;2023-05-15T02:27:59;11.20;;;5.93;;
9370;SDS011;4725;48.384;8.984;2023-05-15T02:30:31;12.63;;;5.77;;
9370;SDS011;4725;48.384;8.984;2023-05-15T02:33:10;9.40;;;6.20;;
9370;SDS011;4725;48.384;8.984;2023-05-15T02:35:46;12.63;;;5.70;;
9370;SDS011;4725;48.384;8.984;2023-05-15T02:38:29;8.17;;;5.47;;
9370;SDS011;4725;48.384;8.984;2023-05-15T02:40:58;10.63;;;5.73;;
9370;SDS011;4725;48.384;8.984;2023-05-15T02:43:27;8.50;;;5.80;;
9370;SDS011;4725;48.384;8.984;2023-05-15T02:45:55;11.80;;;5.63;;
9370;SDS011;4725;48.384;8.984;2023-05-15T02:48:24;8.43;;;5.37;;
9370;SDS011;4725;48.384;8.984;2023-05-15T02:50:51;9.30;;;5.53;;
9370;SDS011;4725;48.384;8.984;2023-05-15T02:53:19;8.30;;;5.23;;
9370;SDS011;4725;48.384;8.984;2023-05-15T02:55:46;10.13;;;5.60;;
9370;SDS011;4725;48.384;8.984;2023-05-15T02:58:13;7.17;;;4.67;;
9370;SDS011;4725;48.384;8.984;2023-05-15T03:00:40;9.07;;;5.67;;
9370;SDS011;4725;48.384;8.984;2023-05-15T03:03:06;13.07;;;6.23;;
9370;SDS011;4725;48.384;8.984;2023-05-15T03:05:35;10.77;;;6.70;;
9370;SDS011;4725;48.384;8.984;2023-05-15T03:08:02;9.97;;;6.27;;
9370;SDS011;4725;48.384;8.984;2023-05-15T03:10:30;8.53;;;5.80;;
9370;SDS011;4725;48.384;8.984;2023-05-15T03:12:57;9.80;;;6.37;;
9370;SDS011;4725;48.384;8.984;2023-05-15T03:15:24;10.93;;;5.93;;
9370;SDS011;4725;48.384;8.984;2023-05-15T03:17:51;8.47;;;5.63;;
9370;SDS011;4725;48.384;8.984;2023-05-15T03:20:18;10.43;;;5.60;;
9370;SDS011;4725;48.384;8.984;2023-05-15T03:22:46;11.37;;;6.93;;
9370;SDS011;4725;48.384;8.984;2023-05-15T03:25:14;12.13;;;6.50;;
9370;SDS011;4725;48.384;8.984;2023-05-15T03:27:41;10.37;;;5.63;;
9370;SDS011;4725;48.384;8.984;2023-05-15T03:30:09;7.97;;;5.20;;
9370;SDS011;4725;48.384;8.984;2023-05-15T03:32:36;9.10;;;5.80;;
9370;SDS011;4725;48.384;8.984;2023-05-15T03:35:03;10.50;;;6.30;;
9370;SDS011;4725;48.384;8.984;2023-05-15T03:37:30;11.50;;;5.90;;
9370;SDS011;4725;48.384;8.984;2023-05-15T03:39:59;9.67;;;5.87;;
9370;SDS011;4725;48.384;8.984;2023-05-15T03:42:26;10.93;;;5.60;;
9370;SDS011;4725;48.384;8.984;2023-05-15T03:44:53;8.50;;;5.73;;
9370;SDS011;4725;48.384;8.984;2023-05-15T03:47:21;8.43;;;5.57;;
9370;SDS011;4725;48.384;8.984;2023-05-15T03:49:48;12.20;;;6.07;;
9370;SDS011;4725;48.384;8.984;2023-05-15T03:52:15;8.00;;;5.53;;
9370;SDS011;4725;48.384;8.984;2023-05-15T03:54:42;7.17;;;5.60;;
9370;SDS011;4725;48.384;8.984;2023-05-15T03:57:10;6.40;;;4.90;;
9370;SDS011;4725;48.384;8.984;2023-05-15T03:59:37;8.07;;;5.43;;
9370;SDS011;4725;48.384;8.984;2023-05-15T04:02:04;9.80;;;5.70;;
9370;SDS011;4725;48.384;8.984;2023-05-15T04:04:31;7.37;;;5.40;;
9370;SDS011;4725;48.384;8.984;2023-05-15T04:06:58;9.53;;;5.37;;
9370;SDS011;4725;48.384;8.984;2023-05-15T04:09:25;9.30;;;5.73;;
9370;SDS011;4725;48.384;8.984;2023-05-15T04:11:52;9.53;;;5.83;;
9370;SDS011;4725;48.384;8.984;2023-05-15T04:14:20;9.70;;;5.77;;
9370;SDS011;4725;48.384;8.984;2023-05-15T04:16:47;10.33;;;5.77;;
9370;SDS011;4725;48.384;8.984;2023-05-15T04:19:13;9.47;;;5.63;;
9370;SDS011;4725;48.384;8.984;2023-05-15T04:21:40;8.70;;;5.33;;
9370;SDS011;4725;48.384;8.984;2023-05-15T04:24:07;9.20;;;5.23;;
9370;SDS011;4725;48.384;8.984;2023-05-15T04:26:34;8.20;;;5.30;;
9370;SDS011;4725;48.384;8.984;2023-05-15T04:29:01;7.83;;;5.03;;
9370;SDS011;4725;48.384;8.984;2023-05-15T04:31:32;6.53;;;5.20;;
9370;SDS011;4725;48.384;8.984;2023-05-15T04:33:59;5.83;;;5.03;;
9370;SDS011;4725;48.384;8.984;2023-05-15T04:36:28;8.70;;;4.90;;
9370;SDS011;4725;48.384;8.984;2023-05-15T04:38:55;7.50;;;5.30;;
9370;SDS011;4725;48.384;8.984;2023-05-15T04:41:22;7.93;;;5.57;;
9370;SDS011;4725;48.384;8.984;2023-05-15T04:43:49;8.73;;;6.03;;
9370;SDS011;4725;48.384;8.984;2023-05-15T04:46:15;11.10;;;5.73;;
9370;SDS011;4725;48.384;8.984;2023-05-15T04:48:44;11.60;;;6.43;;
9370;SDS011;4725;48.384;8.984;2023-05-15T04:51:11;10.00;;;6.13;;
9370;SDS011;4725;48.384;8.984;2023-05-15T04:53:38;9.63;;;6.40;;
9370;SDS011;4725;48.384;8.984;2023-05-15T04:56:05;10.73;;;7.10;;
9370;SDS011;4725;48.384;8.984;2023-05-15T04:58:32;10.17;;;6.77;;
9370;SDS011;4725;48.384;8.984;2023-05-15T05:00:58;10.60;;;6.83;;
9370;SDS011;4725;48.384;8.984;2023-05-15T05:03:25;10.97;;;6.37;;
9370;SDS011;4725;48.384;8.984;2023-05-15T05:05:54;10.23;;;6.60;;
9370;SDS011;4725;48.384;8.984;2023-05-15T05:08:21;14.40;;;7.20;;
9370;SDS011;4725;48.384;8.984;2023-05-15T05:10:53;10.17;;;6.60;;
9370;SDS011;4725;48.384;8.984;2023-05-15T05:13:20;14.30;;;6.67;;
9370;SDS011;4725;48.384;8.984;2023-05-15T05:15:47;10.17;;;6.57;;
9370;SDS011;4725;48.384;8.984;2023-05-15T05:18:14;10.47;;;6.80;;
9370;SDS011;4725;48.384;8.984;2023-05-15T05:20:41;10.33;;;6.17;;
9370;SDS011;4725;48.384;8.984;2023-05-15T05:23:09;11.20;;;6.73;;
9370;SDS011;4725;48.384;8.984;2023-05-15T05:25:38;12.57;;;6.97;;
9370;SDS011;4725;48.384;8.984;2023-05-15T05:28:05;9.47;;;6.40;;
9370;SDS011;4725;48.384;8.984;2023-05-15T05:30:32;9.23;;;6.33;;
9370;SDS011;4725;48.384;8.984;2023-05-15T05:32:59;9.10;;;6.13;;
9370;SDS011;4725;48.384;8.984;2023-05-15T05:35:26;14.93;;;8.30;;
9370;SDS011;4725;48.384;8.984;2023-05-15T05:37:53;10.60;;;7.30;;
9370;SDS011;4725;48.384;8.984;2023-05-15T05:40:22;10.23;;;6.77;;
9370;SDS011;4725;48.384;8.984;2023-05-15T05:42:48;11.03;;;6.87;;
9370;SDS011;4725;48.384;8.984;2023-05-15T05:45:15;12.87;;;8.00;;
9370;SDS011;4725;48.384;8.984;2023-05-15T05:47:42;10.60;;;7.40;;
9370;SDS011;4725;48.384;8.984;2023-05-15T05:50:09;10.23;;;7.20;;
9370;SDS011;4725;48.384;8.984;2023-05-15T05:52:37;12.27;;;6.97;;
9370;SDS011;4725;48.384;8.984;2023-05-15T05:55:04;12.33;;;7.70;;
9370;SDS011;4725;48.384;8.984;2023-05-15T05:57:32;12.50;;;7.77;;
9370;SDS011;4725;48.384;8.984;2023-05-15T05:59:59;12.20;;;7.07;;
9370;SDS011;4725;48.384;8.984;2023-05-15T06:02:26;10.80;;;6.93;;
9370;SDS011;4725;48.384;8.984;2023-05-15T06:04:53;11.33;;;6.97;;
9370;SDS011;4725;48.384;8.984;2023-05-15T06:07:20;7.90;;;6.13;;
9370;SDS011;4725;48.384;8.984;2023-05-15T06:09:47;8.57;;;6.13;;
9370;SDS011;4725;48.384;8.984;2023-05-15T06:12:14;10.10;;;5.83;;
9370;SDS011;4725;48.384;8.984;2023-05-15T06:14:42;6.57;;;5.60;;
9370;SDS011;4725;48.384;8.984;2023-05-15T06:17:09;6.90;;;5.57;;
9370;SDS011;4725;48.384;8.984;2023-05-15T06:19:36;6.10;;;5.00;;
9370;SDS011;4725;48.384;8.984;2023-05-15T06:22:03;7.30;;;5.60;;
9370;SDS011;4725;48.384;8.984;2023-05-15T06:24:30;5.77;;;4.97;;
9370;SDS011;4725;48.384;8.984;2023-05-15T06:26:57;6.63;;;4.90;;
9370;SDS011;4725;48.384;8.984;2023-05-15T06:29:24;5.37;;;4.87;;
9370;SDS011;4725;48.384;8.984;2023-05-15T06:31:52;7.27;;;4.67;;
9370;SDS011;4725;48.384;8.984;2023-05-15T06:34:19;5.13;;;4.63;;
9370;SDS011;4725;48.384;8.984;2023-05-15T06:36:46;5.27;;;4.77;;
9370;SDS011;4725;48.384;8.984;2023-05-15T06:39:12;5.20;;;4.70;;
9370;SDS011;4725;48.384;8.984;2023-05-15T06:41:39;6.60;;;4.47;;
9370;SDS011;4725;48.384;8.984;2023-05-15T06:44:06;5.97;;;4.30;;
9370;SDS011;4725;48.384;8.984;2023-05-15T06:46:33;5.03;;;4.53;;
9370;SDS011;4725;48.384;8.984;2023-05-15T06:49:01;8.97;;;4.77;;
9370;SDS011;4725;48.384;8.984;2023-05-15T06:51:28;4.30;;;3.90;;
9370;SDS011;4725;48.384;8.984;2023-05-15T06:53:55;4.97;;;4.30;;
9370;SDS011;4725;48.384;8.984;2023-05-15T06:56:22;6.33;;;4.23;;
9370;SDS011;4725;48.384;8.984;2023-05-15T06:58:49;4.90;;;4.10;;
9370;SDS011;4725;48.384;8.984;2023-05-15T07:01:16;4.20;;;3.80;;
9370;SDS011;4725;48.384;8.984;2023-05-15T07:03:42;5.10;;;4.27;;
9370;SDS011;4725;48.384;8.984;2023-05-15T07:06:11;5.60;;;4.10;;
9370;SDS011;4725;48.384;8.984;2023-05-15T07:08:37;4.73;;;4.23;;
9370;SDS011;4725;48.384;8.984;2023-05-15T07:11:04;5.47;;;4.33;;
9370;SDS011;4725;48.384;8.984;2023-05-15T07:13:31;5.43;;;4.33;;
9370;SDS011;4725;48.384;8.984;2023-05-15T07:15:58;3.97;;;3.57;;
9370;SDS011;4725;48.384;8.984;2023-05-15T07:18:25;5.00;;;3.80;;
9370;SDS011;4725;48.384;8.984;2023-05-15T07:20:52;4.30;;;3.90;;
9370;SDS011;4725;48.384;8.984;2023-05-15T07:23:20;4.90;;;4.30;;
9370;SDS011;4725;48.384;8.984;2023-05-15T07:25:47;5.10;;;4.40;;
9370;SDS011;4725;48.384;8.984;2023-05-15T07:28:14;5.47;;;4.43;;
9370;SDS011;4725;48.384;8.984;2023-05-15T07:30:40;4.93;;;4.20;;
9370;SDS011;4725;48.384;8.984;2023-05-15T07:33:07;5.20;;;4.70;;
9370;SDS011;4725;48.384;8.984;2023-05-15T07:35:34;4.50;;;4.10;;
9370;SDS011;4725;48.384;8.984;2023-05-15T07:38:01;5.73;;;4.47;;
9370;SDS011;4725;48.384;8.984;2023-05-15T07:40:30;5.27;;;4.47;;
9370;SDS011;4725;48.384;8.984;2023-05-15T07:42:57;5.70;;;4.83;;
9370;SDS011;4725;48.384;8.984;2023-05-15T07:45:23;5.47;;;4.73;;
9370;SDS011;4725;48.384;8.984;2023-05-15T07:47:50;4.73;;;4.23;;
9370;SDS011;4725;48.384;8.984;2023-05-15T07:50:17;4.97;;;4.50;;
9370;SDS011;4725;48.384;8.984;2023-05-15T07:52:44;4.97;;;4.47;;
9370;SDS011;4725;48.384;8.984;2023-05-15T07:55:11;5.25;;;4.50;;
9370;SDS011;4725;48.384;8.984;2023-05-15T07:57:40;4.63;;;4.03;;
9370;SDS011;4725;48.384;8.984;2023-05-15T08:00:07;3.60;;;3.30;;
9370;SDS011;4725;48.384;8.984;2023-05-15T08:02:37;4.43;;;3.90;;
9370;SDS011;4725;48.384;8.984;2023-05-15T08:05:04;4.47;;;4.07;;
9370;SDS011;4725;48.384;8.984;2023-05-15T08:07:32;4.75;;;4.25;;
9370;SDS011;4725;48.384;8.984;2023-05-15T08:09:59;4.78;;;3.50;;
9370;SDS011;4725;48.384;8.984;2023-05-15T08:12:28;4.00;;;3.55;;
9370;SDS011;4725;48.384;8.984;2023-05-15T08:14:56;3.95;;;3.55;;
9370;SDS011;4725;48.384;8.984;2023-05-15T08:17:23;4.10;;;3.67;;
9370;SDS011;4725;48.384;8.984;2023-05-15T08:19:51;3.90;;;3.50;;
9370;SDS011;4725;48.384;8.984;2023-05-15T08:22:18;6.07;;;3.50;;
9370;SDS011;4725;48.384;8.984;2023-05-15T08:24:45;3.75;;;3.30;;
9370;SDS011;4725;48.384;8.984;2023-05-15T08:27:11;4.10;;;3.70;;
9370;SDS011;4725;48.384;8.984;2023-05-15T08:29:39;9.13;;;4.05;;
9370;SDS011;4725;48.384;8.984;2023-05-15T08:32:07;3.70;;;3.40;;
9370;SDS011;4725;48.384;8.984;2023-05-15T08:34:35;4.90;;;3.80;;
9370;SDS011;4725;48.384;8.984;2023-05-15T08:37:03;3.83;;;3.53;;
9370;SDS011;4725;48.384;8.984;2023-05-15T08:39:30;4.65;;;3.67;;
9370;SDS011;4725;48.384;8.984;2023-05-15T08:41:57;3.95;;;3.60;;
9370;SDS011;4725;48.384;8.984;2023-05-15T08:44:30;3.50;;;3.30;;
9370;SDS011;4725;48.384;8.984;2023-05-15T08:46:58;3.97;;;3.55;;
9370;SDS011;4725;48.384;8.984;2023-05-15T08:49:30;4.47;;;4.07;;
9370;SDS011;4725;48.384;8.984;2023-05-15T08:52:01;4.60;;;4.20;;
9370;SDS011;4725;48.384;8.984;2023-05-15T08:54:29;3.80;;;3.50;;
9370;SDS011;4725;48.384;8.984;2023-05-15T08:56:56;4.68;;;3.10;;
9370;SDS011;4725;48.384;8.984;2023-05-15T08:59:24;4.20;;;3.63;;
9370;SDS011;4725;48.384;8.984;2023-05-15T09:01:51;4.03;;;3.65;;
9370;SDS011;4725;48.384;8.984;2023-05-15T09:04:18;7.38;;;3.63;;
9370;SDS011;4725;48.384;8.984;2023-05-15T09:06:47;4.05;;;3.65;;
9370;SDS011;4725;48.384;8.984;2023-05-15T09:09:14;3.90;;;3.50;;
9370;SDS011;4725;48.384;8.984;2023-05-15T09:11:43;3.90;;;3.60;;
9370;SDS011;4725;48.384;8.984;2023-05-15T09:14:13;3.97;;;3.50;;
9370;SDS011;4725;48.384;8.984;2023-05-15T09:16:40;8.70;;;3.47;;
9370;SDS011;4725;48.384;8.984;2023-05-15T09:19:06;3.45;;;3.15;;
9370;SDS011;4725;48.384;8.984;2023-05-15T09:21:35;3.47;;;3.17;;
9370;SDS011;4725;48.384;8.984;2023-05-15T09:24:16;3.50;;;3.20;;
9370;SDS011;4725;48.384;8.984;2023-05-15T09:26:45;3.38;;;3.08;;
9370;SDS011;4725;48.384;8.984;2023-05-15T09:29:26;4.97;;;3.13;;
9370;SDS011;4725;48.384;8.984;2023-05-15T09:31:53;3.13;;;2.90;;
9370;SDS011;4725;48.384;8.984;2023-05-15T09:34:22;3.08;;;2.85;;
9370;SDS011;4725;48.384;8.984;2023-05-15T09:36:55;3.10;;;2.80;;
9370;SDS011;4725;48.384;8.984;2023-05-15T09:39:23;3.13;;;2.80;;
9370;SDS011;4725;48.384;8.984;2023-05-15T09:41:50;3.22;;;2.90;;
9370;SDS011;4725;48.384;8.984;2023-05-15T09:44:18;2.65;;;2.45;;
9370;SDS011;4725;48.384;8.984;2023-05-15T09:46:49;4.00;;;2.53;;
9370;SDS011;4725;48.384;8.984;2023-05-15T09:49:16;3.17;;;2.65;;
9370;SDS011;4725;48.384;8.984;2023-05-15T09:51:43;3.22;;;2.63;;
9370;SDS011;4725;48.384;8.984;2023-05-15T09:54:13;2.83;;;2.45;;
9370;SDS011;4725;48.384;8.984;2023-05-15T09:56:43;3.55;;;2.92;;
9370;SDS011;4725;48.384;8.984;2023-05-15T09:59:11;5.88;;;2.78;;
9370;SDS011;4725;48.384;8.984;2023-05-15T10:01:41;3.20;;;2.90;;
9370;SDS011;4725;48.384;8.984;2023-05-15T10:04:09;3.22;;;2.83;;
9370;SDS011;4725;48.384;8.984;2023-05-15T10:06:37;3.13;;;2.80;;
9370;SDS011;4725;48.384;8.984;2023-05-15T10:09:05;3.30;;;2.63;;
9370;SDS011;4725;48.384;8.984;2023-05-15T10:11:33;2.67;;;2.47;;
9370;SDS011;4725;48.384;8.984;2023-05-15T10:14:02;4.80;;;2.58;;
9370;SDS011;4725;48.384;8.984;2023-05-15T10:16:30;4.55;;;2.65;;
9370;SDS011;4725;48.384;8.984;2023-05-15T10:18:59;5.38;;;3.15;;
9370;SDS011;4725;48.384;8.984;2023-05-15T10:21:29;2.92;;;2.72;;
9370;SDS011;4725;48.384;8.984;2023-05-15T10:23:58;4.57;;;2.28;;
9370;SDS011;4725;48.384;8.984;2023-05-15T10:26:28;2.67;;;2.47;;
9370;SDS011;4725;48.384;8.984;2023-05-15T10:29:04;2.70;;;2.20;;
9370;SDS011;4725;48.384;8.984;2023-05-15T10:31:32;2.35;;;2.15;;
9370;SDS011;4725;48.384;8.984;2023-05-15T10:34:00;3.03;;;2.45;;
9370;SDS011;4725;48.384;8.984;2023-05-15T10:36:27;3.38;;;2.47;;
9370;SDS011;4725;48.384;8.984;2023-05-15T10:38:55;5.05;;;2.67;;
9370;SDS011;4725;48.384;8.984;2023-05-15T10:41:23;3.40;;;2.90;;
9370;SDS011;4725;48.384;8.984;2023-05-15T10:43:52;10.57;;;4.68;;
9370;SDS011;4725;48.384;8.984;2023-05-15T10:46:21;9.48;;;5.43;;
9370;SDS011;4725;48.384;8.984;2023-05-15T10:48:49;8.25;;;4.93;;
9370;SDS011;4725;48.384;8.984;2023-05-15T10:51:17;7.68;;;4.30;;
9370;SDS011;4725;48.384;8.984;2023-05-15T10:53:48;6.70;;;4.03;;
9370;SDS011;4725;48.384;8.984;2023-05-15T10:56:17;7.50;;;2.80;;
9370;SDS011;4725;48.384;8.984;2023-05-15T10:58:44;2.67;;;2.47;;
9370;SDS011;4725;48.384;8.984;2023-05-15T11:01:29;4.03;;;2.93;;
9370;SDS011;4725;48.384;8.984;2023-05-15T11:04:07;16.87;;;3.03;;
9370;SDS011;4725;48.384;8.984;2023-05-15T11:06:35;3.83;;;3.10;;
9370;SDS011;4725;48.384;8.984;2023-05-15T11:12:02;6.00;;;3.00;;
9370;SDS011;4725;48.384;8.984;2023-05-15T11:14:30;3.27;;;2.70;;
9370;SDS011;4725;48.384;8.984;2023-05-15T11:17:00;3.03;;;2.70;;
9370;SDS011;4725;48.384;8.984;2023-05-15T11:19:35;3.43;;;2.60;;
9370;SDS011;4725;48.384;8.984;2023-05-15T11:22:16;5.43;;;2.83;;
9370;SDS011;4725;48.384;8.984;2023-05-15T11:24:49;5.30;;;3.07;;
9370;SDS011;4725;48.384;8.984;2023-05-15T11:27:17;5.10;;;3.00;;
9370;SDS011;4725;48.384;8.984;2023-05-15T11:32:40;7.47;;;3.70;;
9370;SDS011;4725;48.384;8.984;2023-05-15T11:35:16;6.20;;;3.00;;
9370;SDS011;4725;48.384;8.984;2023-05-15T11:37:45;3.33;;;3.03;;
9370;SDS011;4725;48.384;8.984;2023-05-15T11:40:13;3.53;;;3.23;;
9370;SDS011;4725;48.384;8.984;2023-05-15T11:42:57;3.60;;;2.80;;
9370;SDS011;4725;48.384;8.984;2023-05-15T11:45:34;2.30;;;2.10;;
9370;SDS011;4725;48.384;8.984;2023-05-15T11:48:04;2.93;;;2.10;;
9370;SDS011;4725;48.384;8.984;2023-05-15T11:50:32;3.63;;;2.10;;
9370;SDS011;4725;48.384;8.984;2023-05-15T11:53:01;3.13;;;2.00;;
9370;SDS011;4725;48.384;8.984;2023-05-15T11:55:29;3.57;;;1.80;;
9370;SDS011;4725;48.384;8.984;2023-05-15T11:57:58;2.20;;;1.97;;
9370;SDS011;4725;48.384;8.984;2023-05-15T12:00:25;2.60;;;2.00;;
9370;SDS011;4725;48.384;8.984;2023-05-15T12:02:52;2.28;;;1.60;;
9370;SDS011;4725;48.384;8.984;2023-05-15T12:05:20;1.33;;;1.20;;
9370;SDS011;4725;48.384;8.984;2023-05-15T12:07:47;3.03;;;1.30;;
9370;SDS011;4725;48.384;8.984;2023-05-15T12:10:14;2.22;;;1.65;;
9370;SDS011;4725;48.384;8.984;2023-05-15T12:12:41;1.80;;;1.60;;
9370;SDS011;4725;48.384;8.984;2023-05-15T12:15:10;2.03;;;1.83;;
9370;SDS011;4725;48.384;8.984;2023-05-15T12:17:37;4.30;;;1.80;;
9370;SDS011;4725;48.384;8.984;2023-05-15T12:20:06;2.53;;;2.00;;
9370;SDS011;4725;48.384;8.984;2023-05-15T12:22:37;2.58;;;2.30;;
9370;SDS011;4725;48.384;8.984;2023-05-15T12:25:06;3.03;;;2.20;;
9370;SDS011;4725;48.384;8.984;2023-05-15T12:27:34;2.45;;;2.25;;
9370;SDS011;4725;48.384;8.984;2023-05-15T12:30:02;2.60;;;2.00;;
9370;SDS011;4725;48.384;8.984;2023-05-15T12:32:31;1.88;;;1.70;;
9370;SDS011;4725;48.384;8.984;2023-05-15T12:35:00;3.00;;;2.00;;
9370;SDS011;4725;48.384;8.984;2023-05-15T12:37:27;2.45;;;2.17;;
9370;SDS011;4725;48.384;8.984;2023-05-15T12:39:59;2.13;;;1.90;;
9370;SDS011;4725;48.384;8.984;2023-05-15T12:42:28;4.63;;;2.03;;
9370;SDS011;4725;48.384;8.984;2023-05-15T12:44:55;1.90;;;1.67;;
9370;SDS011;4725;48.384;8.984;2023-05-15T12:47:23;2.92;;;2.20;;
9370;SDS011;4725;48.384;8.984;2023-05-15T12:49:53;2.75;;;2.03;;
9370;SDS011;4725;48.384;8.984;2023-05-15T12:52:21;2.25;;;1.65;;
9370;SDS011;4725;48.384;8.984;2023-05-15T12:54:49;4.13;;;2.10;;
9370;SDS011;4725;48.384;8.984;2023-05-15T12:57:17;2.17;;;1.98;;
9370;SDS011;4725;48.384;8.984;2023-05-15T12:59:44;1.85;;;1.75;;
9370;SDS011;4725;48.384;8.984;2023-05-15T13:02:11;2.42;;;1.90;;
9370;SDS011;4725;48.384;8.984;2023-05-15T13:04:38;1.90;;;1.80;;
9370;SDS011;4725;48.384;8.984;2023-05-15T13:07:05;2.03;;;1.90;;
9370;SDS011;4725;48.384;8.984;2023-05-15T13:09:32;2.45;;;2.25;;
9370;SDS011;4725;48.384;8.984;2023-05-15T13:12:00;2.00;;;1.80;;
9370;SDS011;4725;48.384;8.984;2023-05-15T13:14:32;2.08;;;1.88;;
9370;SDS011;4725;48.384;8.984;2023-05-15T13:17:00;2.15;;;1.98;;
9370;SDS011;4725;48.384;8.984;2023-05-15T13:19:28;2.08;;;1.88;;
9370;SDS011;4725;48.384;8.984;2023-05-15T13:21:55;2.13;;;1.95;;
9370;SDS011;4725;48.384;8.984;2023-05-15T13:24:22;2.30;;;1.90;;
9370;SDS011;4725;48.384;8.984;2023-05-15T13:26:49;1.92;;;1.80;;
9370;SDS011;4725;48.384;8.984;2023-05-15T13:29:16;3.67;;;2.08;;
9370;SDS011;4725;48.384;8.984;2023-05-15T13:31:45;3.22;;;2.08;;
9370;SDS011;4725;48.384;8.984;2023-05-15T13:34:11;5.00;;;2.03;;
9370;SDS011;4725;48.384;8.984;2023-05-15T13:36:38;2.50;;;2.00;;
9370;SDS011;4725;48.384;8.984;2023-05-15T13:39:05;3.08;;;1.80;;
9370;SDS011;4725;48.384;8.984;2023-05-15T13:41:32;1.75;;;1.65;;
9370;SDS011;4725;48.384;8.984;2023-05-15T13:44:00;2.30;;;2.10;;
9370;SDS011;4725;48.384;8.984;2023-05-15T13:46:27;2.67;;;1.95;;
9370;SDS011;4725;48.384;8.984;2023-05-15T13:48:55;2.38;;;2.15;;
9370;SDS011;4725;48.384;8.984;2023-05-15T13:51:22;2.88;;;1.90;;
9370;SDS011;4725;48.384;8.984;2023-05-15T13:53:49;2.28;;;2.08;;
9370;SDS011;4725;48.384;8.984;2023-05-15T13:56:16;2.45;;;1.92;;
9370;SDS011;4725;48.384;8.984;2023-05-15T13:58:42;2.05;;;1.92;;
9370;SDS011;4725;48.384;8.984;2023-05-15T14:01:09;2.10;;;2.00;;
9370;SDS011;4725;48.384;8.984;2023-05-15T14:03:36;3.65;;;2.20;;
9370;SDS011;4725;48.384;8.984;2023-05-15T14:06:05;2.28;;;2.08;;
9370;SDS011;4725;48.384;8.984;2023-05-15T14:08:33;2.13;;;1.98;;
9370;SDS011;4725;48.384;8.984;2023-05-15T14:11:00;3.45;;;2.00;;
9370;SDS011;4725;48.384;8.984;2023-05-15T14:13:27;3.00;;;1.90;;
9370;SDS011;4725;48.384;8.984;2023-05-15T14:15:55;1.70;;;1.60;;
9370;SDS011;4725;48.384;8.984;2023-05-15T14:18:22;2.20;;;1.92;;
9370;SDS011;4725;48.384;8.984;2023-05-15T14:20:50;2.15;;;1.80;;
9370;SDS011;4725;48.384;8.984;2023-05-15T14:23:18;2.38;;;1.80;;
9370;SDS011;4725;48.384;8.984;2023-05-15T14:25:45;3.15;;;2.00;;
9370;SDS011;4725;48.384;8.984;2023-05-15T14:28:12;2.97;;;1.92;;
9370;SDS011;4725;48.384;8.984;2023-05-15T14:30:39;1.95;;;1.85;;
9370;SDS011;4725;48.384;8.984;2023-05-15T14:33:06;2.22;;;2.03;;
9370;SDS011;4725;48.384;8.984;2023-05-15T14:35:33;2.55;;;1.77;;
9370;SDS011;4725;48.384;8.984;2023-05-15T14:37:59;2.70;;;1.80;;
9370;SDS011;4725;48.384;8.984;2023-05-15T14:40:28;2.63;;;2.08;;
9370;SDS011;4725;48.384;8.984;2023-05-15T14:42:55;2.00;;;1.70;;
9370;SDS011;4725;48.384;8.984;2023-05-15T14:45:22;1.70;;;1.60;;
9370;SDS011;4725;48.384;8.984;2023-05-15T14:47:48;1.83;;;1.73;;
9370;SDS011;4725;48.384;8.984;2023-05-15T14:50:15;1.88;;;1.77;;
9370;SDS011;4725;48.384;8.984;2023-05-15T14:52:42;2.10;;;1.90;;
9370;SDS011;4725;48.384;8.984;2023-05-15T14:55:09;2.78;;;2.08;;
9370;SDS011;4725;48.384;8.984;2023-05-15T14:57:38;3.25;;;2.35;;
9370;SDS011;4725;48.384;8.984;2023-05-15T15:00:05;2.13;;;1.67;;
9370;SDS011;4725;48.384;8.984;2023-05-15T15:02:33;2.42;;;1.90;;
9370;SDS011;4725;48.384;8.984;2023-05-15T15:05:00;2.47;;;1.90;;
9370;SDS011;4725;48.384;8.984;2023-05-15T15:07:28;2.17;;;1.98;;
9370;SDS011;4725;48.384;8.984;2023-05-15T15:09:55;3.40;;;2.10;;
9370;SDS011;4725;48.384;8.984;2023-05-15T15:12:22;2.05;;;1.80;;
9370;SDS011;4725;48.384;8.984;2023-05-15T15:14:52;3.03;;;2.75;;
9370;SDS011;4725;48.384;8.984;2023-05-15T15:17:20;3.05;;;2.75;;
9370;SDS011;4725;48.384;8.984;2023-05-15T15:19:47;4.20;;;3.38;;
9370;SDS011;4725;48.384;8.984;2023-05-15T15:22:15;2.67;;;2.45;;
9370;SDS011;4725;48.384;8.984;2023-05-15T15:24:41;3.22;;;2.65;;